Time;durP1;ratioP1;P1;durP2;ratioP2;P2;SDS_P1;SDS_P2;PMS_P1;PMS_P2;Temp;Humidity;BMP_temperature;BMP_pressure;BME280_temperature;BME280_humidity;BME280_pressure;Samples;Min_cycle;Max_cycle;Signal;HPM_P1;HPM_P2
2021/12/13 00:00:40;;;;;;;;;;;9.60;99.90;;;;;;5035287;28;20268;-76
2021/12/13 00:03:14;;;;;;;;;;;9.60;99.90;;;;;;5038689;28;19939;-77
2021/12/13 00:05:44;;;;;;;;;;;9.60;99.90;;;;;;5043042;28;20031;-76
2021/12/13 00:08:13;;;;;;;;;;;9.60;99.90;;;;;;5034374;28;19935;-77
2021/12/13 00:10:42;;;;;;;;;;;9.60;99.90;;;;;;5039255;28;19931;-76
2021/12/13 00:13:12;;;;;;;;;;;9.60;99.90;;;;;;5039130;28;19929;-76
2021/12/13 00:15:43;;;;;;;;;;;9.60;99.90;;;;;;5036882;28;20023;-76
2021/12/13 00:18:14;;;;;;;;;;;9.60;99.90;;;;;;5048888;28;19931;-76
2021/12/13 00:20:44;;;;;;;;;;;9.60;99.90;;;;;;5041310;28;19925;-76
2021/12/13 00:23:14;;;;;;;;;;;9.60;99.90;;;;;;5046605;28;19953;-76
2021/12/13 00:25:42;;;;;;;;;;;9.60;99.90;;;;;;5048184;28;19931;-76
2021/12/13 00:28:13;;;;;;;;;;;9.60;99.90;;;;;;5045304;28;20350;-76
2021/12/13 00:30:42;;;;;;;;;;;9.60;99.90;;;;;;5043127;28;20434;-75
2021/12/13 00:33:15;;;;;;;;;;;9.60;99.90;;;;;;5049760;28;19931;-77
2021/12/13 00:35:46;;;;;;;;;;;9.60;99.90;;;;;;5047634;28;20016;-77
2021/12/13 00:38:14;;;;;;;;;;;9.60;99.90;;;;;;5045400;28;19931;-77
2021/12/13 00:40:43;;;;;;;;;;;9.50;99.90;;;;;;5045398;28;20003;-76
2021/12/13 00:43:12;;;;;;;;;;;9.50;99.90;;;;;;5043216;28;20651;-76
2021/12/13 00:45:42;;;;;;;;;;;9.50;99.90;;;;;;5043459;28;19925;-77
2021/12/13 00:48:09;;;;;;;;;;;9.50;99.90;;;;;;5036720;28;19932;-76
2021/12/13 00:50:38;;;;;;;;;;;9.50;99.90;;;;;;5041391;28;20011;-77
2021/12/13 00:53:07;;;;;;;;;;;9.50;99.90;;;;;;5046449;28;19931;-77
2021/12/13 00:55:34;;;;;;;;;;;9.50;99.90;;;;;;5035875;28;19940;-76
2021/12/13 00:58:08;;;;;;;;;;;9.40;99.90;;;;;;5037481;28;19929;-77
2021/12/13 01:00:36;;;;;;;;;;;9.40;99.90;;;;;;5046289;28;19933;-77
2021/12/13 01:03:05;;;;;;;;;;;9.40;99.90;;;;;;5046187;28;20411;-77
2021/12/13 01:05:45;;;;;;;;;;;9.40;99.90;;;;;;5043035;28;19933;-76
2021/12/13 01:08:15;;;;;;;;;;;9.40;99.90;;;;;;5047327;28;19998;-76
2021/12/13 01:11:09;;;;;;;;;;;9.40;99.90;;;;;;5045552;28;19925;-76
2021/12/13 01:13:38;;;;;;;;;;;9.40;99.90;;;;;;5049990;28;19925;-78
2021/12/13 01:16:14;;;;;;;;;;;9.40;99.90;;;;;;5045610;28;19925;-76
2021/12/13 01:18:57;;;;;;;;;;;9.40;99.90;;;;;;5048074;28;19925;-76
2021/12/13 01:21:31;;;;;;;;;;;9.40;99.90;;;;;;5042693;28;19950;-76
2021/12/13 01:24:05;;;;;;;;;;;9.40;99.90;;;;;;5044037;28;19971;-76
2021/12/13 01:26:39;;;;;;;;;;;9.40;99.90;;;;;;5042270;28;20019;-76
2021/12/13 01:29:08;;;;;;;;;;;9.40;99.90;;;;;;5044877;28;20066;-76
2021/12/13 01:31:36;;;;;;;;;;;9.40;99.90;;;;;;5040216;28;19925;-76
2021/12/13 01:34:04;;;;;;;;;;;9.40;99.90;;;;;;5037149;28;20011;-76
2021/12/13 01:36:38;;;;;;;;;;;9.40;99.90;;;;;;5050428;28;19925;-76
2021/12/13 01:39:07;;;;;;;;;;;9.40;99.90;;;;;;5042171;28;19972;-76
2021/12/13 01:41:36;;;;;;;;;;;9.50;99.90;;;;;;5043182;28;19964;-76
2021/12/13 01:44:06;;;;;;;;;;;9.40;99.90;;;;;;5045628;28;20010;-76
2021/12/13 01:46:35;;;;;;;;;;;9.50;99.90;;;;;;5040920;28;20287;-76
2021/12/13 01:49:02;;;;;;;;;;;9.40;99.90;;;;;;5043599;28;19931;-76
2021/12/13 01:51:33;;;;;;;;;;;9.40;99.90;;;;;;5040630;28;19973;-75
2021/12/13 01:54:02;;;;;;;;;;;9.40;99.90;;;;;;5046572;28;20039;-77
2021/12/13 01:56:42;;;;;;;;;;;9.40;99.90;;;;;;5050068;28;20387;-76
2021/12/13 01:59:28;;;;;;;;;;;9.50;99.90;;;;;;5045705;28;19933;-75
2021/12/13 02:01:56;;;;;;;;;;;9.40;99.90;;;;;;5046168;28;19933;-76
2021/12/13 02:04:22;;;;;;;;;;;9.40;99.90;;;;;;5041604;28;20292;-75
2021/12/13 02:06:51;;;;;;;;;;;9.50;99.90;;;;;;5050376;28;20394;-76
2021/12/13 02:09:19;;;;;;;;;;;9.50;99.90;;;;;;5045433;28;19956;-77
2021/12/13 02:11:49;;;;;;;;;;;9.40;99.90;;;;;;5044582;28;19979;-77
2021/12/13 02:14:18;;;;;;;;;;;9.40;99.90;;;;;;5041679;28;19925;-76
2021/12/13 02:17:00;;;;;;;;;;;9.50;99.90;;;;;;5046020;28;20737;-79
2021/12/13 02:19:32;;;;;;;;;;;9.40;99.90;;;;;;5041416;28;20387;-76
2021/12/13 02:22:06;;;;;;;;;;;9.40;99.90;;;;;;5043628;28;19931;-76
2021/12/13 02:24:35;;;;;;;;;;;9.40;99.90;;;;;;5040378;28;19931;-77
2021/12/13 02:27:04;;;;;;;;;;;9.40;99.90;;;;;;5041981;28;20008;-76
2021/12/13 02:29:36;;;;;;;;;;;9.40;99.90;;;;;;5036143;28;20024;-76
2021/12/13 02:32:04;;;;;;;;;;;9.40;99.90;;;;;;5041213;28;19968;-75
2021/12/13 02:34:33;;;;;;;;;;;9.40;99.90;;;;;;5042850;28;20348;-75
2021/12/13 02:37:00;;;;;;;;;;;9.40;99.90;;;;;;5045440;28;20414;-77
2021/12/13 02:39:28;;;;;;;;;;;9.40;99.90;;;;;;5042935;28;19931;-76
2021/12/13 02:41:57;;;;;;;;;;;9.40;99.90;;;;;;5040175;28;19928;-77
2021/12/13 02:44:25;;;;;;;;;;;9.30;99.90;;;;;;5040629;28;19925;-77
2021/12/13 02:46:53;;;;;;;;;;;9.40;99.90;;;;;;5036085;28;20023;-76
2021/12/13 02:49:20;;;;;;;;;;;9.40;99.90;;;;;;5038704;28;20020;-76
2021/12/13 02:51:48;;;;;;;;;;;9.30;99.90;;;;;;5043630;28;19931;-76
2021/12/13 02:54:17;;;;;;;;;;;9.30;99.90;;;;;;5047252;28;19924;-76
2021/12/13 02:56:45;;;;;;;;;;;9.30;99.90;;;;;;5042772;28;19967;-76
2021/12/13 02:59:14;;;;;;;;;;;9.30;99.90;;;;;;5040749;28;19933;-75
2021/12/13 03:01:43;;;;;;;;;;;9.30;99.90;;;;;;5041464;28;19935;-78
2021/12/13 03:04:12;;;;;;;;;;;9.30;99.90;;;;;;5040498;28;19925;-76
2021/12/13 03:06:45;;;;;;;;;;;9.30;99.90;;;;;;5045111;28;19935;-76
2021/12/13 03:09:14;;;;;;;;;;;9.30;99.90;;;;;;5042364;28;20388;-76
2021/12/13 03:11:40;;;;;;;;;;;9.30;99.90;;;;;;5046288;28;19925;-77
2021/12/13 03:14:09;;;;;;;;;;;9.30;99.90;;;;;;5037218;28;19933;-76
2021/12/13 03:16:41;;;;;;;;;;;9.30;99.90;;;;;;5041891;28;19940;-76
2021/12/13 03:19:10;;;;;;;;;;;9.30;99.90;;;;;;5041696;28;19932;-76
2021/12/13 03:21:56;;;;;;;;;;;9.20;99.90;;;;;;5044588;28;19942;-76
2021/12/13 03:24:45;;;;;;;;;;;9.30;99.90;;;;;;5042275;28;19933;-76
2021/12/13 03:27:18;;;;;;;;;;;9.20;99.90;;;;;;5048521;28;19924;-76
2021/12/13 03:29:51;;;;;;;;;;;9.20;99.90;;;;;;5044304;28;19932;-77
2021/12/13 03:32:21;;;;;;;;;;;9.30;99.90;;;;;;5043458;28;19931;-76
2021/12/13 03:34:55;;;;;;;;;;;9.30;99.90;;;;;;5043394;28;19924;-75
2021/12/13 03:37:24;;;;;;;;;;;9.30;99.90;;;;;;5040675;28;19933;-76
2021/12/13 03:39:53;;;;;;;;;;;9.30;99.90;;;;;;5044951;28;19925;-76
2021/12/13 03:42:22;;;;;;;;;;;9.30;99.90;;;;;;5049525;28;20048;-76
2021/12/13 03:44:50;;;;;;;;;;;9.30;99.90;;;;;;5045821;28;20015;-76
2021/12/13 03:47:20;;;;;;;;;;;9.30;99.90;;;;;;5047036;28;19931;-76
2021/12/13 03:49:49;;;;;;;;;;;9.30;99.90;;;;;;5046231;28;19975;-76
2021/12/13 03:52:18;;;;;;;;;;;9.30;99.90;;;;;;5048538;28;20003;-75
2021/12/13 03:54:45;;;;;;;;;;;9.30;99.90;;;;;;5039864;28;20019;-77
2021/12/13 03:57:18;;;;;;;;;;;9.30;99.90;;;;;;5045806;28;20023;-76
2021/12/13 03:59:45;;;;;;;;;;;9.30;99.90;;;;;;5043756;28;19925;-77
2021/12/13 04:02:16;;;;;;;;;;;9.20;99.90;;;;;;5044023;28;19998;-77
2021/12/13 04:04:44;;;;;;;;;;;9.20;99.90;;;;;;5048731;28;19950;-76
2021/12/13 04:07:13;;;;;;;;;;;9.20;99.90;;;;;;5049325;28;20414;-76
2021/12/13 04:09:42;;;;;;;;;;;9.20;99.90;;;;;;5046181;28;19931;-75
2021/12/13 04:12:09;;;;;;;;;;;9.20;99.90;;;;;;5044853;28;19931;-76
2021/12/13 04:14:41;;;;;;;;;;;9.20;99.90;;;;;;5041078;28;20392;-76
2021/12/13 04:17:23;;;;;;;;;;;9.20;99.90;;;;;;5040602;28;19932;-76
2021/12/13 04:19:52;;;;;;;;;;;9.20;99.90;;;;;;5046552;28;19971;-76
2021/12/13 04:22:23;;;;;;;;;;;9.20;99.90;;;;;;5042970;28;19951;-76
2021/12/13 04:24:52;;;;;;;;;;;9.30;99.90;;;;;;5041830;28;20292;-76
2021/12/13 04:27:22;;;;;;;;;;;9.20;99.90;;;;;;5040859;28;20028;-76
2021/12/13 04:29:49;;;;;;;;;;;9.20;99.90;;;;;;5047927;28;19951;-76
2021/12/13 04:32:19;;;;;;;;;;;9.20;99.90;;;;;;5047834;28;19931;-76
2021/12/13 04:34:46;;;;;;;;;;;9.20;99.90;;;;;;5038556;28;19925;-76
2021/12/13 04:37:14;;;;;;;;;;;9.20;99.90;;;;;;5046012;28;20443;-75
2021/12/13 04:39:43;;;;;;;;;;;9.20;99.90;;;;;;5045959;28;19925;-75
2021/12/13 04:42:11;;;;;;;;;;;9.20;99.90;;;;;;5046163;28;20523;-76
2021/12/13 04:44:39;;;;;;;;;;;9.20;99.90;;;;;;5045555;28;19943;-75
2021/12/13 04:47:10;;;;;;;;;;;9.20;99.90;;;;;;5047080;28;19931;-76
2021/12/13 04:49:38;;;;;;;;;;;9.20;99.90;;;;;;5048176;28;19998;-76
2021/12/13 04:52:06;;;;;;;;;;;9.20;99.90;;;;;;5044332;28;19936;-75
2021/12/13 04:54:34;;;;;;;;;;;9.20;99.90;;;;;;5046790;28;20364;-75
2021/12/13 04:57:02;;;;;;;;;;;9.20;99.90;;;;;;5046744;28;19933;-75
2021/12/13 04:59:32;;;;;;;;;;;9.20;99.90;;;;;;5046085;28;20024;-74
2021/12/13 05:02:02;;;;;;;;;;;9.20;99.90;;;;;;5045040;28;19928;-75
2021/12/13 05:04:29;;;;;;;;;;;9.20;99.90;;;;;;5042911;28;19980;-74
2021/12/13 05:06:57;;;;;;;;;;;9.20;99.90;;;;;;5035997;28;19929;-75
2021/12/13 05:09:27;;;;;;;;;;;9.20;99.90;;;;;;5052260;28;20008;-75
2021/12/13 05:11:56;;;;;;;;;;;9.20;99.90;;;;;;5049956;28;20385;-75
2021/12/13 05:14:31;;;;;;;;;;;9.20;99.90;;;;;;5048662;28;19925;-75
2021/12/13 05:16:59;;;;;;;;;;;9.20;99.90;;;;;;5050259;28;19931;-75
2021/12/13 05:19:28;;;;;;;;;;;9.20;99.90;;;;;;5050539;28;20384;-75
2021/12/13 05:21:56;;;;;;;;;;;9.20;99.90;;;;;;5051259;28;19925;-76
2021/12/13 05:24:25;;;;;;;;;;;9.10;99.90;;;;;;5051100;28;19925;-75
2021/12/13 05:26:54;;;;;;;;;;;9.20;99.90;;;;;;5047744;28;20003;-73
2021/12/13 05:29:22;;;;;;;;;;;9.20;99.90;;;;;;5049463;28;20004;-73
2021/12/13 05:31:51;;;;;;;;;;;9.10;99.90;;;;;;5048896;28;20290;-74
2021/12/13 05:34:18;;;;;;;;;;;9.10;99.90;;;;;;5047236;28;19952;-73
2021/12/13 05:36:53;;;;;;;;;;;9.20;99.90;;;;;;5042351;28;19929;-72
2021/12/13 05:39:20;;;;;;;;;;;9.10;99.90;;;;;;5048134;28;19935;-73
2021/12/13 05:41:50;;;;;;;;;;;9.20;99.90;;;;;;5041638;28;20542;-73
2021/12/13 05:44:23;;;;;;;;;;;9.20;99.90;;;;;;5047685;28;19939;-74
2021/12/13 05:46:51;;;;;;;;;;;9.20;99.90;;;;;;5045231;28;19943;-74
2021/12/13 05:49:19;;;;;;;;;;;9.20;99.90;;;;;;5041743;28;20495;-73
2021/12/13 05:51:49;;;;;;;;;;;9.10;99.90;;;;;;5037840;28;19925;-73
2021/12/13 05:54:21;;;;;;;;;;;9.10;99.90;;;;;;5046505;28;19933;-75
2021/12/13 05:56:49;;;;;;;;;;;9.10;99.90;;;;;;5050146;28;21243;-74
2021/12/13 05:59:17;;;;;;;;;;;9.10;99.90;;;;;;5051554;28;19943;-73
2021/12/13 06:01:59;;;;;;;;;;;9.10;99.90;;;;;;5045400;28;19925;-73
2021/12/13 06:04:31;;;;;;;;;;;9.10;99.90;;;;;;5052288;28;19935;-74
2021/12/13 06:06:58;;;;;;;;;;;9.10;99.90;;;;;;5044464;28;19947;-74
2021/12/13 06:09:41;;;;;;;;;;;9.10;99.90;;;;;;5040297;28;19933;-74
2021/12/13 06:12:09;;;;;;;;;;;9.10;99.90;;;;;;5049793;28;19928;-74
2021/12/13 06:14:36;;;;;;;;;;;9.20;99.90;;;;;;5041102;28;20418;-75
2021/12/13 06:17:09;;;;;;;;;;;9.20;99.90;;;;;;5044530;28;19925;-74
2021/12/13 06:19:38;;;;;;;;;;;9.10;99.90;;;;;;5038718;28;19972;-73
2021/12/13 06:22:07;;;;;;;;;;;9.10;99.90;;;;;;5043675;28;20010;-74
2021/12/13 06:24:35;;;;;;;;;;;9.10;99.90;;;;;;5046108;28;19984;-75
2021/12/13 06:27:10;;;;;;;;;;;9.10;99.90;;;;;;5043940;28;20340;-74
2021/12/13 06:29:49;;;;;;;;;;;9.10;99.90;;;;;;5045448;28;20015;-73
2021/12/13 06:32:28;;;;;;;;;;;9.10;99.90;;;;;;5045230;28;19929;-74
2021/12/13 06:34:54;;;;;;;;;;;9.10;99.90;;;;;;5037284;28;19925;-73
2021/12/13 06:37:26;;;;;;;;;;;9.10;99.90;;;;;;5050146;28;19924;-73
2021/12/13 06:40:09;;;;;;;;;;;9.10;99.90;;;;;;5047971;28;19925;-73
2021/12/13 06:42:36;;;;;;;;;;;9.10;99.90;;;;;;5042556;28;19983;-73
2021/12/13 06:45:03;;;;;;;;;;;9.10;99.90;;;;;;5043962;28;19933;-73
2021/12/13 06:47:31;;;;;;;;;;;9.10;99.90;;;;;;5042990;28;19924;-72
2021/12/13 06:49:59;;;;;;;;;;;9.10;99.90;;;;;;5041742;28;19925;-73
2021/12/13 06:52:32;;;;;;;;;;;9.10;99.90;;;;;;5037295;28;19940;-73
2021/12/13 06:55:00;;;;;;;;;;;9.10;99.90;;;;;;5046950;28;19925;-72
2021/12/13 06:57:33;;;;;;;;;;;9.10;99.90;;;;;;5037419;28;19925;-72
2021/12/13 07:00:02;;;;;;;;;;;9.10;99.90;;;;;;5033398;28;20023;-72
2021/12/13 07:02:37;;;;;;;;;;;9.10;99.90;;;;;;5040131;28;19924;-73
2021/12/13 07:05:07;;;;;;;;;;;9.10;99.90;;;;;;5044846;28;19925;-72
2021/12/13 07:07:36;;;;;;;;;;;9.10;99.90;;;;;;5044606;28;19929;-73
2021/12/13 07:10:06;;;;;;;;;;;9.20;99.90;;;;;;5047321;28;21061;-73
2021/12/13 07:12:33;;;;;;;;;;;9.20;99.90;;;;;;5044721;28;20372;-72
2021/12/13 07:15:03;;;;;;;;;;;9.20;99.90;;;;;;5037568;28;19925;-73
2021/12/13 07:17:33;;;;;;;;;;;9.20;99.90;;;;;;5045988;28;20793;-73
2021/12/13 07:20:12;;;;;;;;;;;9.20;99.90;;;;;;5036844;28;19970;-75
2021/12/13 07:22:41;;;;;;;;;;;9.20;99.90;;;;;;5045378;28;19931;-75
2021/12/13 07:25:11;;;;;;;;;;;9.20;99.90;;;;;;5048781;28;19931;-74
2021/12/13 07:27:42;;;;;;;;;;;9.20;99.90;;;;;;5048056;28;19925;-73
2021/12/13 07:30:11;;;;;;;;;;;9.20;99.90;;;;;;5038694;28;19931;-73
2021/12/13 07:32:39;;;;;;;;;;;9.20;99.90;;;;;;5049345;28;20473;-73
2021/12/13 07:35:09;;;;;;;;;;;9.20;99.90;;;;;;5045446;28;19925;-73
2021/12/13 07:37:49;;;;;;;;;;;9.20;99.90;;;;;;5050013;28;19925;-75
2021/12/13 07:40:18;;;;;;;;;;;9.20;99.90;;;;;;5052188;28;20030;-72
2021/12/13 07:42:50;;;;;;;;;;;9.20;99.90;;;;;;5032675;28;19935;-73
2021/12/13 07:45:22;;;;;;;;;;;9.20;99.90;;;;;;5051178;28;19925;-74
2021/12/13 07:47:50;;;;;;;;;;;9.20;99.90;;;;;;5043280;28;19951;-73
2021/12/13 07:50:20;;;;;;;;;;;9.20;99.90;;;;;;5049108;28;19925;-79
2021/12/13 07:52:52;;;;;;;;;;;9.20;99.90;;;;;;5034779;28;19984;-74
2021/12/13 07:55:23;;;;;;;;;;;9.20;99.90;;;;;;5050954;28;19939;-74
2021/12/13 07:57:50;;;;;;;;;;;9.20;99.90;;;;;;5037137;28;19933;-75
2021/12/13 08:00:20;;;;;;;;;;;9.20;99.90;;;;;;5051143;28;19925;-75
2021/12/13 08:02:53;;;;;;;;;;;9.20;99.90;;;;;;5048825;28;19933;-75
2021/12/13 08:05:23;;;;;;;;;;;9.20;99.90;;;;;;5044095;28;20365;-74
2021/12/13 08:07:53;;;;;;;;;;;9.20;99.90;;;;;;5043006;28;20044;-74
2021/12/13 08:10:22;;;;;;;;;;;9.20;99.90;;;;;;5045458;28;19928;-74
2021/12/13 08:12:50;;;;;;;;;;;9.20;99.90;;;;;;5044490;28;20103;-75
2021/12/13 08:15:19;;;;;;;;;;;9.20;99.90;;;;;;5048823;28;19925;-73
2021/12/13 08:17:48;;;;;;;;;;;9.20;99.90;;;;;;5045500;28;20298;-74
2021/12/13 08:20:19;;;;;;;;;;;9.20;99.90;;;;;;5051126;28;19964;-74
2021/12/13 08:22:49;;;;;;;;;;;9.20;99.90;;;;;;5037722;28;19933;-73
2021/12/13 08:25:20;;;;;;;;;;;9.30;99.90;;;;;;5047819;28;20379;-74
2021/12/13 08:27:52;;;;;;;;;;;9.20;99.90;;;;;;5048558;28;19931;-74
2021/12/13 08:30:20;;;;;;;;;;;9.20;99.90;;;;;;5032631;28;20020;-73
2021/12/13 08:32:55;;;;;;;;;;;9.20;99.90;;;;;;5043741;28;19931;-74
2021/12/13 08:35:21;;;;;;;;;;;9.30;99.90;;;;;;5033110;28;19937;-75
2021/12/13 08:37:54;;;;;;;;;;;9.20;99.90;;;;;;5047024;28;19929;-73
2021/12/13 08:40:23;;;;;;;;;;;9.20;99.90;;;;;;5053889;28;19925;-73
2021/12/13 08:42:51;;;;;;;;;;;9.20;99.90;;;;;;5045676;28;20012;-72
2021/12/13 08:45:21;;;;;;;;;;;9.20;99.90;;;;;;5042294;28;19940;-72
2021/12/13 08:47:49;;;;;;;;;;;9.20;99.90;;;;;;5049404;28;20513;-76
2021/12/13 08:50:19;;;;;;;;;;;9.30;99.90;;;;;;5052948;28;19924;-74
2021/12/13 08:52:48;;;;;;;;;;;9.30;99.90;;;;;;5050335;28;20414;-74
2021/12/13 08:55:19;;;;;;;;;;;9.30;99.90;;;;;;5052557;28;19932;-74
2021/12/13 08:57:49;;;;;;;;;;;9.30;99.90;;;;;;5052511;28;19984;-73
2021/12/13 09:00:26;;;;;;;;;;;9.30;99.90;;;;;;5054767;28;19931;-73
2021/12/13 09:02:54;;;;;;;;;;;9.30;99.90;;;;;;5048443;28;19929;-72
2021/12/13 09:05:23;;;;;;;;;;;9.30;99.90;;;;;;5056180;28;19924;-74
2021/12/13 09:07:53;;;;;;;;;;;9.30;99.90;;;;;;5051818;28;19925;-74
2021/12/13 09:10:20;;;;;;;;;;;9.30;99.90;;;;;;5052039;28;19951;-73
2021/12/13 09:12:57;;;;;;;;;;;9.30;99.90;;;;;;5045840;28;19925;-73
2021/12/13 09:15:26;;;;;;;;;;;9.30;99.90;;;;;;5049685;28;20015;-73
2021/12/13 09:17:53;;;;;;;;;;;9.40;99.90;;;;;;5049090;28;20018;-73
2021/12/13 09:20:21;;;;;;;;;;;9.40;99.90;;;;;;5053737;28;19931;-73
2021/12/13 09:22:49;;;;;;;;;;;9.40;99.90;;;;;;5040438;28;19964;-73
2021/12/13 09:25:18;;;;;;;;;;;9.50;99.90;;;;;;5050658;28;20302;-73
2021/12/13 09:27:48;;;;;;;;;;;9.50;99.90;;;;;;5046093;28;19929;-73
2021/12/13 09:30:35;;;;;;;;;;;9.40;99.90;;;;;;5050698;28;19925;-73
2021/12/13 09:33:04;;;;;;;;;;;9.50;99.90;;;;;;5051038;28;20410;-73
2021/12/13 09:35:33;;;;;;;;;;;9.50;99.90;;;;;;5052177;28;19931;-72
2021/12/13 09:38:02;;;;;;;;;;;9.50;99.90;;;;;;5045264;28;19925;-73
2021/12/13 09:40:34;;;;;;;;;;;9.50;99.90;;;;;;5051422;28;20414;-73
2021/12/13 09:43:00;;;;;;;;;;;9.50;99.90;;;;;;5043199;28;20460;-73
2021/12/13 09:45:29;;;;;;;;;;;9.60;99.90;;;;;;5046213;28;19956;-72
2021/12/13 09:47:58;;;;;;;;;;;9.60;99.90;;;;;;5046509;28;20467;-72
2021/12/13 09:50:26;;;;;;;;;;;9.60;99.90;;;;;;5049458;28;19924;-72
2021/12/13 09:52:55;;;;;;;;;;;9.60;99.90;;;;;;5046591;28;20441;-74
2021/12/13 09:55:25;;;;;;;;;;;9.60;99.90;;;;;;5045817;28;19924;-72
2021/12/13 09:57:53;;;;;;;;;;;9.60;99.90;;;;;;5046754;28;19943;-72
2021/12/13 10:00:22;;;;;;;;;;;9.60;99.90;;;;;;5052452;28;19935;-73
2021/12/13 10:02:51;;;;;;;;;;;9.60;99.90;;;;;;5048093;28;20396;-72
2021/12/13 10:05:21;;;;;;;;;;;9.60;99.90;;;;;;5050980;28;20047;-71
2021/12/13 10:07:51;;;;;;;;;;;9.70;99.90;;;;;;5042626;28;20012;-73
2021/12/13 10:10:19;;;;;;;;;;;9.70;99.90;;;;;;5053223;28;19948;-72
2021/12/13 10:12:48;;;;;;;;;;;9.70;99.90;;;;;;5048295;28;19924;-73
2021/12/13 10:15:16;;;;;;;;;;;9.70;99.90;;;;;;5042004;28;19925;-72
2021/12/13 10:17:46;;;;;;;;;;;9.70;99.90;;;;;;5039708;28;19933;-73
2021/12/13 10:20:14;;;;;;;;;;;9.80;99.90;;;;;;5045488;28;19924;-72
2021/12/13 10:22:43;;;;;;;;;;;9.70;99.90;;;;;;5051180;28;20007;-73
2021/12/13 10:25:15;;;;;;;;;;;9.80;99.90;;;;;;5051892;28;20446;-73
2021/12/13 10:27:43;;;;;;;;;;;9.80;99.90;;;;;;5048603;28;19925;-73
2021/12/13 10:30:13;;;;;;;;;;;9.80;99.90;;;;;;5041687;28;19931;-73
2021/12/13 10:32:40;;;;;;;;;;;9.80;99.90;;;;;;5047218;28;20014;-73
2021/12/13 10:35:09;;;;;;;;;;;9.90;99.90;;;;;;5052882;28;19957;-75
2021/12/13 10:37:36;;;;;;;;;;;9.80;99.90;;;;;;5050860;28;19925;-73
2021/12/13 10:40:09;;;;;;;;;;;9.80;99.90;;;;;;5043081;28;19999;-72
2021/12/13 10:42:36;;;;;;;;;;;9.80;99.90;;;;;;5049361;28;19929;-73
2021/12/13 10:45:06;;;;;;;;;;;9.90;99.90;;;;;;5052317;28;19928;-72
2021/12/13 10:47:33;;;;;;;;;;;9.90;99.90;;;;;;5035197;28;19925;-72
2021/12/13 10:50:01;;;;;;;;;;;9.90;99.90;;;;;;5046630;28;19929;-74
2021/12/13 10:52:30;;;;;;;;;;;9.90;99.90;;;;;;5042787;28;20401;-73
2021/12/13 10:54:58;;;;;;;;;;;10.00;99.90;;;;;;5050258;28;19925;-74
2021/12/13 11:00:11;;;;;;;;;;;10.00;99.90;;;;;;5012147;22;19933;-73
2021/12/13 11:02:38;;;;;;;;;;;10.00;99.90;;;;;;5009306;28;19926;-76
2021/12/13 11:05:07;;;;;;;;;;;10.00;99.90;;;;;;4999428;28;19926;-74
2021/12/13 11:07:34;;;;;;;;;;;10.00;99.90;;;;;;5001884;28;19933;-73
2021/12/13 11:10:01;;;;;;;;;;;10.10;99.90;;;;;;5013148;28;20020;-73
2021/12/13 11:12:29;;;;;;;;;;;10.10;99.90;;;;;;5005371;28;19930;-75
2021/12/13 11:14:58;;;;;;;;;;;10.10;99.90;;;;;;5007261;28;19933;-74
2021/12/13 11:17:27;;;;;;;;;;;10.10;99.90;;;;;;5009698;28;19934;-75
2021/12/13 11:19:56;;;;;;;;;;;10.10;99.90;;;;;;5007949;28;20376;-74
2021/12/13 11:22:25;;;;;;;;;;;10.10;99.90;;;;;;5004152;28;19925;-74
2021/12/13 11:24:53;;;;;;;;;;;10.10;99.90;;;;;;5002059;28;20415;-75
2021/12/13 11:27:21;;;;;;;;;;;10.10;99.90;;;;;;4998258;28;19926;-75
2021/12/13 11:29:48;;;;;;;;;;;10.10;99.90;;;;;;4996249;28;20025;-76
2021/12/13 11:32:30;;;;;;;;;;;10.10;99.90;;;;;;5001648;28;20384;-75
2021/12/13 11:35:22;;;;;;;;;;;10.20;99.90;;;;;;4997086;28;19940;-75
2021/12/13 11:37:57;;;;;;;;;;;10.10;99.90;;;;;;5001609;28;20336;-75
2021/12/13 11:40:33;;;;;;;;;;;10.20;99.90;;;;;;5001982;28;20016;-75
2021/12/13 11:43:11;;;;;;;;;;;10.20;99.90;;;;;;5005554;28;19972;-74
2021/12/13 11:48:57;;;;;;;;;;;10.20;99.90;;;;;;4996219;28;20293;-75
2021/12/13 11:51:44;;;;;;;;;;;10.20;99.90;;;;;;5001296;28;19926;-76
2021/12/13 11:54:29;;;;;;;;;;;10.10;99.90;;;;;;4997175;28;19934;-75
2021/12/13 11:57:11;;;;;;;;;;;10.20;99.90;;;;;;5004613;28;19932;-74
2021/12/13 11:59:56;;;;;;;;;;;10.20;99.90;;;;;;5004910;22;19988;-74
2021/12/13 12:02:30;;;;;;;;;;;10.20;99.90;;;;;;4991920;28;19925;-72
2021/12/13 12:05:16;;;;;;;;;;;10.20;99.90;;;;;;4992288;28;19936;-70
2021/12/13 12:08:06;;;;;;;;;;;10.20;99.90;;;;;;4994455;28;19925;-73
2021/12/13 12:11:00;;;;;;;;;;;10.20;99.90;;;;;;4994691;28;19936;-73
2021/12/13 12:13:35;;;;;;;;;;;10.20;99.90;;;;;;4954304;28;20180;-73
2021/12/13 12:16:03;;;;;;;;;;;10.20;99.90;;;;;;4990135;28;19926;-72
2021/12/13 12:18:31;;;;;;;;;;;10.20;99.90;;;;;;4998613;28;19932;-73
2021/12/13 12:21:12;;;;;;;;;;;10.20;99.90;;;;;;5006480;28;19926;-74
2021/12/13 12:23:42;;;;;;;;;;;10.20;99.90;;;;;;4996033;28;20397;-74
2021/12/13 12:26:09;;;;;;;;;;;10.20;99.90;;;;;;5000311;28;19925;-76
2021/12/13 12:28:43;;;;;;;;;;;10.20;99.90;;;;;;5005418;28;19933;-72
2021/12/13 12:31:11;;;;;;;;;;;10.20;99.90;;;;;;5004527;28;19926;-75
2021/12/13 12:33:39;;;;;;;;;;;10.10;99.90;;;;;;4999762;28;19932;-75
2021/12/13 12:36:07;;;;;;;;;;;10.20;99.90;;;;;;5000638;28;20007;-72
2021/12/13 12:38:58;;;;;;;;;;;10.20;99.90;;;;;;5004017;28;20017;-76
2021/12/13 12:41:41;;;;;;;;;;;10.20;99.90;;;;;;4997602;28;20311;-73
2021/12/13 12:44:15;;;;;;;;;;;10.20;99.90;;;;;;4998915;28;19926;-76
2021/12/13 12:46:42;;;;;;;;;;;10.10;99.90;;;;;;5006118;28;19929;-76
2021/12/13 12:49:13;;;;;;;;;;;10.10;99.90;;;;;;5002462;28;20017;-76
2021/12/13 12:51:40;;;;;;;;;;;10.10;99.90;;;;;;4995724;28;19976;-75
2021/12/13 12:54:08;;;;;;;;;;;10.10;99.90;;;;;;5001528;28;19932;-76
2021/12/13 12:56:35;;;;;;;;;;;10.00;99.90;;;;;;4999126;28;20038;-75
2021/12/13 12:59:05;;;;;;;;;;;10.10;99.90;;;;;;4998162;28;19936;-76
2021/12/13 13:01:36;;;;;;;;;;;10.00;99.90;;;;;;4999139;28;19925;-75
2021/12/13 13:04:08;;;;;;;;;;;10.10;99.90;;;;;;4995768;28;20377;-76
2021/12/13 13:06:35;;;;;;;;;;;10.10;99.90;;;;;;5001421;28;19932;-77
2021/12/13 13:09:07;;;;;;;;;;;10.10;99.90;;;;;;4996862;28;20008;-75
2021/12/13 13:11:35;;;;;;;;;;;10.10;99.90;;;;;;4998229;28;19932;-75
2021/12/13 13:14:10;;;;;;;;;;;10.00;99.90;;;;;;4994525;28;19926;-71
2021/12/13 13:16:41;;;;;;;;;;;10.10;99.90;;;;;;4997585;28;19926;-73
2021/12/13 13:19:08;;;;;;;;;;;10.10;99.90;;;;;;5002064;28;19941;-73
2021/12/13 13:21:41;;;;;;;;;;;10.00;99.90;;;;;;4997838;28;19932;-73
2021/12/13 13:24:08;;;;;;;;;;;10.00;99.90;;;;;;4994487;28;19933;-73
2021/12/13 13:26:37;;;;;;;;;;;10.00;99.90;;;;;;4997648;28;19936;-74
2021/12/13 13:29:05;;;;;;;;;;;10.00;99.90;;;;;;5004476;28;20324;-73
2021/12/13 13:31:35;;;;;;;;;;;10.00;99.90;;;;;;4999421;28;20349;-76
2021/12/13 13:34:05;;;;;;;;;;;10.00;99.90;;;;;;5002837;28;19925;-73
2021/12/13 13:36:35;;;;;;;;;;;10.00;99.90;;;;;;4996475;28;19934;-74
2021/12/13 13:39:12;;;;;;;;;;;10.00;99.90;;;;;;5000315;28;19929;-74
2021/12/13 13:41:39;;;;;;;;;;;10.00;99.90;;;;;;4996239;28;19968;-74
2021/12/13 13:44:08;;;;;;;;;;;10.00;99.90;;;;;;4998091;28;19979;-76
2021/12/13 13:46:35;;;;;;;;;;;9.90;99.90;;;;;;5001024;28;19932;-72
2021/12/13 13:49:03;;;;;;;;;;;10.00;99.90;;;;;;5004942;28;19925;-73
2021/12/13 13:51:31;;;;;;;;;;;9.90;99.90;;;;;;4999556;28;20008;-74
2021/12/13 13:53:58;;;;;;;;;;;9.90;99.90;;;;;;5001759;28;19933;-73
2021/12/13 13:56:26;;;;;;;;;;;9.90;99.90;;;;;;4997684;28;20427;-72
2021/12/13 13:58:55;;;;;;;;;;;9.90;99.90;;;;;;4999455;28;20423;-72
2021/12/13 14:01:23;;;;;;;;;;;10.00;99.90;;;;;;5001659;28;19925;-73
2021/12/13 14:03:51;;;;;;;;;;;10.00;99.90;;;;;;4999737;28;20278;-73
2021/12/13 14:06:21;;;;;;;;;;;9.90;99.90;;;;;;5005069;28;20299;-73
2021/12/13 14:08:54;;;;;;;;;;;9.90;99.90;;;;;;5003158;28;20020;-74
2021/12/13 14:11:21;;;;;;;;;;;9.90;99.90;;;;;;4993544;28;20031;-74
2021/12/13 14:13:48;;;;;;;;;;;9.90;99.90;;;;;;5000009;28;19934;-75
2021/12/13 14:16:16;;;;;;;;;;;9.90;99.90;;;;;;5001660;28;19925;-74
2021/12/13 14:18:44;;;;;;;;;;;9.80;99.90;;;;;;5000649;28;20522;-73
2021/12/13 14:21:13;;;;;;;;;;;9.90;99.90;;;;;;5001629;28;19926;-74
2021/12/13 14:23:43;;;;;;;;;;;9.90;99.90;;;;;;5003107;28;20358;-75
2021/12/13 14:26:11;;;;;;;;;;;9.90;99.90;;;;;;4998148;28;19933;-74
2021/12/13 14:28:38;;;;;;;;;;;9.90;99.90;;;;;;4993927;28;19934;-72
2021/12/13 14:31:07;;;;;;;;;;;9.80;99.90;;;;;;4998710;28;19925;-76
2021/12/13 14:33:35;;;;;;;;;;;9.90;99.90;;;;;;5002272;28;20312;-75
2021/12/13 14:36:08;;;;;;;;;;;9.80;99.90;;;;;;4997206;28;20393;-73
2021/12/13 14:38:36;;;;;;;;;;;9.80;99.90;;;;;;5006682;28;19964;-76
2021/12/13 14:41:05;;;;;;;;;;;9.80;99.90;;;;;;4999849;28;20028;-75
2021/12/13 14:43:34;;;;;;;;;;;9.70;99.90;;;;;;5004604;28;19933;-77
2021/12/13 14:46:02;;;;;;;;;;;9.70;99.90;;;;;;5000443;28;20032;-76
2021/12/13 14:48:30;;;;;;;;;;;9.70;99.90;;;;;;4998170;28;19926;-74
2021/12/13 14:50:58;;;;;;;;;;;9.70;99.90;;;;;;5003572;28;19940;-75
2021/12/13 14:53:26;;;;;;;;;;;9.70;99.90;;;;;;5000447;28;20296;-75